Time;durP1;ratioP1;P1;durP2;ratioP2;P2;SDS_P1;SDS_P2;PMS_P1;PMS_P2;Temp;Humidity;BMP_temperature;BMP_pressure;BME280_temperature;BME280_humidity;BME280_pressure;Samples;Min_cycle;Max_cycle;Signal;HPM_P1;HPM_P2
2021/01/26 00:02:14;;;;;;;6.70;5.47;;;;;;;;;;5040193;28;20479;-58
2021/01/26 00:05:01;;;;;;;7.65;6.75;;;;;;;;;;5040468;28;20068;-59
2021/01/26 00:07:50;;;;;;;6.53;4.83;;;;;;;;;;5039958;28;20037;-59
2021/01/26 00:10:20;;;;;;;11.10;5.57;;;;;;;;;;5039429;28;20045;-58
2021/01/26 00:12:47;;;;;;;6.63;5.05;;;;;;;;;;5041558;28;20364;-58
2021/01/26 00:15:41;;;;;;;12.27;6.43;;;;;;;;;;5040213;28;20467;-58
2021/01/26 00:18:44;;;;;;;6.40;5.53;;;;;;;;;;5038622;28;20033;-58
2021/01/26 00:21:32;;;;;;;7.80;4.93;;;;;;;;;;5036912;28;20068;-58
2021/01/26 00:24:21;;;;;;;8.40;4.77;;;;;;;;;;5038102;28;20076;-58
2021/01/26 00:29:56;;;;;;;11.53;6.43;;;;;;;;;;5031984;28;20058;-59
2021/01/26 00:42:03;;;;;;;6.73;4.90;;;;;;;;;;5101374;28;20074;-59
2021/01/26 00:45:09;;;;;;;8.07;6.00;;;;;;;;;;5101017;28;20044;-59
2021/01/26 00:50:44;;;;;;;6.33;5.10;;;;;;;;;;5058203;28;20030;-59
2021/01/26 00:57:07;;;;;;;;;;;;;;;;;;;;;
2021/01/26 00:59:46;;;;;;;5.70;4.97;;;;;;;;;;4978238;28;20571;-59
2021/01/26 01:02:36;;;;;;;6.83;6.13;;;;;;;;;;5025511;28;20042;-59
2021/01/26 01:05:30;;;;;;;7.25;5.38;;;;;;;;;;5040101;28;20089;-59
2021/01/26 01:07:56;;;;;;;11.40;7.03;;;;;;;;;;5039677;28;20025;-59
2021/01/26 01:10:58;;;;;;;;;;;;;;;;;;;;;
2021/01/26 01:16:23;;;;;;;9.60;5.40;;;;;;;;;;5039201;28;20116;-58
2021/01/26 01:19:25;;;;;;;6.27;5.50;;;;;;;;;;5039802;28;20029;-58
2021/01/26 01:25:12;;;;;;;8.20;5.93;;;;;;;;;;5039411;28;20079;-59
2021/01/26 01:27:53;;;;;;;11.70;6.27;;;;;;;;;;5039453;28;20744;-59
2021/01/26 01:30:38;;;;;;;8.10;5.77;;;;;;;;;;5039890;28;20024;-59
2021/01/26 01:33:22;;;;;;;8.20;6.13;;;;;;;;;;5038684;28;20078;-59
2021/01/26 01:38:53;;;;;;;7.03;6.20;;;;;;;;;;5030640;28;20038;-59
2021/01/26 01:41:53;;;;;;;6.43;4.97;;;;;;;;;;5038152;28;20089;-59
2021/01/26 01:44:48;;;;;;;6.43;4.55;;;;;;;;;;5038953;28;20499;-59
2021/01/26 01:47:43;;;;;;;7.07;5.13;;;;;;;;;;5039129;28;20018;-58
2021/01/26 01:50:38;;;;;;;6.77;6.10;;;;;;;;;;5047754;28;20056;-58
2021/01/26 02:02:45;;;;;;;5.80;4.60;;;;;;;;;;5038130;28;20084;-58
2021/01/26 02:05:33;;;;;;;7.47;5.00;;;;;;;;;;4995759;28;20493;-58
2021/01/26 02:08:21;;;;;;;8.07;6.00;;;;;;;;;;4998905;28;20040;-58
2021/01/26 02:11:12;;;;;;;6.97;5.33;;;;;;;;;;5038292;28;20043;-58
2021/01/26 02:14:19;;;;;;;10.47;5.43;;;;;;;;;;5037841;28;20037;-58
2021/01/26 02:20:22;;;;;;;8.43;5.50;;;;;;;;;;5073156;28;20039;-59
2021/01/26 02:23:08;;;;;;;5.70;4.07;;;;;;;;;;5025422;28;20049;-58
2021/01/26 02:25:59;;;;;;;7.10;4.80;;;;;;;;;;5062156;28;20025;-58
2021/01/26 02:28:44;;;;;;;6.15;4.90;;;;;;;;;;5061825;28;20029;-59
2021/01/26 02:34:45;;;;;;;10.93;6.37;;;;;;;;;;5061960;28;20068;-59
2021/01/26 02:37:40;;;;;;;7.70;5.90;;;;;;;;;;5062277;28;20358;-59
2021/01/26 02:40:25;;;;;;;8.30;5.97;;;;;;;;;;5111529;27;20171;-59
2021/01/26 02:43:43;;;;;;;7.50;5.50;;;;;;;;;;5061273;28;20514;-59
2021/01/26 02:46:39;;;;;;;7.30;5.67;;;;;;;;;;5081553;28;20559;-58
2021/01/26 02:52:24;;;;;;;10.23;6.50;;;;;;;;;;5053579;28;20088;-59
2021/01/26 02:55:25;;;;;;;7.80;5.40;;;;;;;;;;5043287;28;20029;-59
2021/01/26 02:58:08;;;;;;;5.68;4.10;;;;;;;;;;5042795;28;20067;-58
2021/01/26 03:01:01;;;;;;;6.70;4.93;;;;;;;;;;5061614;28;20041;-59
2021/01/26 03:07:06;;;;;;;7.63;5.67;;;;;;;;;;5077499;28;20036;-58
2021/01/26 03:09:51;;;;;;;9.13;5.75;;;;;;;;;;5043749;28;20032;-59
2021/01/26 03:12:51;;;;;;;6.37;4.63;;;;;;;;;;5044004;28;20062;-59
2021/01/26 03:15:36;;;;;;;14.93;6.18;;;;;;;;;;5060316;28;20040;-59
2021/01/26 03:18:14;;;;;;;10.10;7.03;;;;;;;;;;5060533;28;20049;-59
2021/01/26 03:20:59;;;;;;;7.97;6.30;;;;;;;;;;5061415;28;20060;-58
2021/01/26 03:23:43;;;;;;;6.63;5.13;;;;;;;;;;5042468;28;20070;-59
2021/01/26 03:26:17;;;;;;;6.27;4.90;;;;;;;;;;5061339;28;20104;-59
2021/01/26 03:29:14;;;;;;;9.90;6.83;;;;;;;;;;5060922;28;20029;-59
2021/01/26 03:32:05;;;;;;;12.37;6.67;;;;;;;;;;5022931;28;20074;-59
2021/01/26 03:35:10;;;;;;;8.95;6.00;;;;;;;;;;5039575;28;20025;-59
2021/01/26 03:37:52;;;;;;;6.97;5.40;;;;;;;;;;5037316;28;20081;-59
2021/01/26 03:40:28;;;;;;;10.67;7.23;;;;;;;;;;5022305;28;20037;-58
2021/01/26 03:43:01;;;;;;;10.47;5.33;;;;;;;;;;5021771;28;20021;-59
2021/01/26 03:45:38;;;;;;;7.07;5.93;;;;;;;;;;5038538;28;20068;-58
2021/01/26 03:48:28;;;;;;;10.40;7.03;;;;;;;;;;5022480;28;20083;-59
2021/01/26 03:51:13;;;;;;;9.55;6.20;;;;;;;;;;5039347;28;20049;-59
2021/01/26 03:57:02;;;;;;;8.65;7.68;;;;;;;;;;5047120;28;20524;-58
2021/01/26 03:59:54;;;;;;;9.83;6.27;;;;;;;;;;5038894;28;20029;-58
2021/01/26 04:02:55;;;;;;;;;;;;;;;;;;;;;
2021/01/26 04:05:44;;;;;;;7.93;6.47;;;;;;;;;;5060692;28;20097;-59
2021/01/26 04:11:31;;;;;;;8.10;5.80;;;;;;;;;;4999108;28;20054;-59
2021/01/26 04:23:49;;;;;;;8.43;6.13;;;;;;;;;;5041564;28;20057;-59
2021/01/26 04:26:28;;;;;;;9.60;6.90;;;;;;;;;;5040880;28;20044;-59
2021/01/26 04:29:10;;;;;;;10.33;6.40;;;;;;;;;;5040260;28;20052;-59
2021/01/26 04:31:57;;;;;;;9.23;6.37;;;;;;;;;;5036366;28;20041;-59
2021/01/26 04:37:42;;;;;;;8.73;5.57;;;;;;;;;;4998798;28;20117;-59
2021/01/26 04:40:38;;;;;;;7.97;6.70;;;;;;;;;;5031720;28;20482;-59
2021/01/26 04:43:36;;;;;;;7.80;6.00;;;;;;;;;;5032786;28;20032;-59
2021/01/26 04:46:31;;;;;;;;;;;;;;;;;;;;;
2021/01/26 04:49:28;;;;;;;6.83;4.77;;;;;;;;;;5031658;28;20651;-59
2021/01/26 04:52:25;;;;;;;9.00;6.37;;;;;;;;;;5032806;28;20097;-59
2021/01/26 05:00:58;;;;;;;8.00;6.17;;;;;;;;;;5031736;28;20118;-59
2021/01/26 05:04:00;;;;;;;8.00;6.90;;;;;;;;;;5032479;28;20112;-58
2021/01/26 05:07:13;;;;;;;8.83;5.47;;;;;;;;;;5030909;28;20037;-59
2021/01/26 05:12:59;;;;;;;10.10;3.95;;;;;;;;;;5023631;28;20063;-59
2021/01/26 05:18:51;;;;;;;5.63;4.60;;;;;;;;;;5031904;28;20037;-59
2021/01/26 05:24:44;;;;;;;7.57;4.63;;;;;;;;;;5045614;27;20053;-59
2021/01/26 05:30:29;;;;;;;6.03;5.40;;;;;;;;;;5054739;28;20522;-59
2021/01/26 05:36:08;;;;;;;7.57;6.17;;;;;;;;;;5050668;28;20055;-59
2021/01/26 05:39:08;;;;;;;;;;;;;;;;;;;;;
2021/01/26 05:54:34;;;;;;;6.00;4.53;;;;;;;;;;5050972;28;20037;-59
2021/01/26 05:57:17;;;;;;;9.98;6.18;;;;;;;;;;5015401;28;20094;-59
2021/01/26 05:59:59;;;;;;;8.03;3.93;;;;;;;;;;5052565;28;20021;-59
2021/01/26 06:02:46;;;;;;;7.10;4.60;;;;;;;;;;5054272;28;20025;-59
2021/01/26 06:05:35;;;;;;;;;;;;;;;;;;;;;
2021/01/26 06:08:27;;;;;;;5.05;4.10;;;;;;;;;;5055072;28;20033;-59
2021/01/26 06:11:14;;;;;;;5.87;4.97;;;;;;;;;;5054820;28;20107;-59
2021/01/26 06:13:46;;;;;;;8.00;5.17;;;;;;;;;;5054419;28;20044;-59
2021/01/26 06:16:30;;;;;;;6.27;4.70;;;;;;;;;;5035151;28;20449;-59
2021/01/26 06:19:10;;;;;;;9.37;6.80;;;;;;;;;;5036839;28;20581;-59
2021/01/26 06:22:00;;;;;;;7.90;4.28;;;;;;;;;;5053840;28;20033;-59
2021/01/26 06:24:29;;;;;;;6.88;4.32;;;;;;;;;;5035239;28;20482;-59
2021/01/26 06:27:24;;;;;;;5.27;3.73;;;;;;;;;;5053822;28;20072;-59
2021/01/26 06:29:55;;;;;;;9.10;4.17;;;;;;;;;;5062658;28;20410;-59
2021/01/26 06:32:52;;;;;;;7.43;5.07;;;;;;;;;;5053843;28;20039;-59
2021/01/26 06:35:51;;;;;;;7.27;3.63;;;;;;;;;;5036293;28;20469;-59
2021/01/26 06:38:55;;;;;;;;;;;;;;;;;;;;;
2021/01/26 06:44:51;;;;;;;7.05;4.80;;;;;;;;;;5053645;28;20390;-59
2021/01/26 06:47:30;;;;;;;;;;;;;;;;;;;;;
2021/01/26 06:50:15;;;;;;;6.03;3.83;;;;;;;;;;5008933;28;20109;-59
2021/01/26 06:52:55;;;;;;;5.30;4.10;;;;;;;;;;5072050;28;20036;-60
2021/01/26 06:55:59;;;;;;;6.77;4.10;;;;;;;;;;5057163;28;20028;-59
2021/01/26 06:58:45;;;;;;;5.07;4.07;;;;;;;;;;5075239;28;20036;-59
2021/01/26 07:01:33;;;;;;;6.67;5.40;;;;;;;;;;5052569;28;20120;-59
2021/01/26 07:07:37;;;;;;;4.90;3.00;;;;;;;;;;5053198;28;20037;-60
2021/01/26 07:10:25;;;;;;;4.70;2.73;;;;;;;;;;5064812;28;20359;-59
2021/01/26 07:13:02;;;;;;;7.63;4.10;;;;;;;;;;5052571;28;20029;-59
2021/01/26 07:15:59;;;;;;;;;;;;;;;;;;;;;
2021/01/26 07:18:57;;;;;;;;;;;;;;;;;;;;;
2021/01/26 07:24:27;;;;;;;2.67;2.23;;;;;;;;;;5037092;27;20486;-60
2021/01/26 07:27:15;;;;;;;6.57;3.77;;;;;;;;;;5051950;28;20041;-60
2021/01/26 07:29:50;;;;;;;5.87;2.50;;;;;;;;;;5052429;28;20025;-59
2021/01/26 07:32:45;;;;;;;4.10;2.87;;;;;;;;;;5040832;28;20075;-59
2021/01/26 07:35:33;;;;;;;9.83;3.20;;;;;;;;;;5052785;28;20058;-59
2021/01/26 07:38:35;;;;;;;;;;;;;;;;;;;;;
2021/01/26 07:41:19;;;;;;;;;;;;;;;;;;5052524;28;20029;-59
2021/01/26 07:44:03;;;;;;;4.43;2.73;;;;;;;;;;5053006;28;19957;-59
2021/01/26 07:46:59;;;;;;;4.63;2.60;;;;;;;;;;5035098;28;20048;-59
2021/01/26 07:49:32;;;;;;;5.77;3.30;;;;;;;;;;5052612;28;20025;-60
2021/01/26 07:52:12;;;;;;;8.60;4.00;;;;;;;;;;5052190;28;20032;-59
2021/01/26 07:55:00;;;;;;;4.97;3.60;;;;;;;;;;5034900;28;20044;-59
2021/01/26 07:57:32;;;;;;;7.93;3.67;;;;;;;;;;5052482;28;20334;-60
2021/01/26 08:03:25;;;;;;;5.70;2.43;;;;;;;;;;5048953;28;20037;-59
2021/01/26 08:09:07;;;;;;;8.13;4.47;;;;;;;;;;5051495;28;20039;-59
2021/01/26 08:11:40;;;;;;;5.03;3.27;;;;;;;;;;5051408;28;20542;-60
2021/01/26 08:14:17;;;;;;;6.13;2.67;;;;;;;;;;5033236;28;20478;-59
2021/01/26 08:16:51;;;;;;;5.17;2.17;;;;;;;;;;5035341;28;20025;-59
2021/01/26 08:23:06;;;;;;;5.57;2.87;;;;;;;;;;5037330;28;20063;-59
2021/01/26 08:26:06;;;;;;;5.57;2.97;;;;;;;;;;5050823;28;20128;-59
2021/01/26 08:29:00;;;;;;;;;;;;;;;;;;;;;
2021/01/26 08:31:45;;;;;;;5.80;2.13;;;;;;;;;;5051860;28;20035;-59
2021/01/26 08:34:55;;;;;;;3.07;2.00;;;;;;;;;;5051590;28;20060;-59
2021/01/26 08:40:55;;;;;;;3.73;2.73;;;;;;;;;;5051652;28;20028;-59
2021/01/26 08:43:40;;;;;;;12.88;9.18;;;;;;;;;;5052102;28;20040;-59
2021/01/26 08:49:18;;;;;;;3.97;2.97;;;;;;;;;;5042834;28;20029;-59
2021/01/26 08:52:11;;;;;;;4.37;2.70;;;;;;;;;;5051228;28;20025;-59
2021/01/26 08:57:56;;;;;;;5.67;3.90;;;;;;;;;;5020933;28;20026;-59
2021/01/26 09:00:58;;;;;;;6.23;3.17;;;;;;;;;;4970675;28;20066;-59
2021/01/26 09:04:00;;;;;;;4.67;3.53;;;;;;;;;;4954027;28;20031;-59
2021/01/26 09:09:53;;;;;;;2.93;2.37;;;;;;;;;;5031427;28;20088;-59
2021/01/26 09:12:31;;;;;;;4.77;2.63;;;;;;;;;;5032231;28;20033;-59
2021/01/26 09:18:20;;;;;;;3.43;2.47;;;;;;;;;;5029721;28;20035;-59
2021/01/26 09:21:07;;;;;;;5.40;4.07;;;;;;;;;;4990964;28;20056;-59
2021/01/26 09:23:41;;;;;;;5.40;3.40;;;;;;;;;;5049712;28;20041;-60
2021/01/26 09:26:39;;;;;;;8.57;4.23;;;;;;;;;;5051290;28;20432;-59
2021/01/26 09:29:24;;;;;;;11.87;4.63;;;;;;;;;;5058124;28;20045;-59
2021/01/26 09:31:53;;;;;;;5.67;3.47;;;;;;;;;;5050126;28;20028;-59
2021/01/26 09:34:34;;;;;;;3.33;2.43;;;;;;;;;;5033288;28;20032;-59
2021/01/26 09:40:45;;;;;;;2.93;2.63;;;;;;;;;;5053791;28;20079;-59
2021/01/26 09:43:31;;;;;;;5.23;3.53;;;;;;;;;;5054871;28;20112;-59
2021/01/26 09:46:10;;;;;;;3.73;3.07;;;;;;;;;;5036321;28;20025;-59
2021/01/26 09:49:02;;;;;;;9.63;2.97;;;;;;;;;;5035641;28;20479;-59
2021/01/26 09:54:35;;;;;;;3.27;2.67;;;;;;;;;;5048019;28;20169;-59
2021/01/26 10:00:38;;;;;;;7.00;3.53;;;;;;;;;;5050514;28;20033;-60
2021/01/26 10:03:10;;;;;;;3.78;2.08;;;;;;;;;;5031276;28;20421;-59
2021/01/26 10:06:01;;;;;;;2.73;2.30;;;;;;;;;;5031855;28;20037;-60
2021/01/26 10:08:39;;;;;;;12.43;3.47;;;;;;;;;;5030723;28;20068;-60
2021/01/26 10:11:44;;;;;;;;;;;;;;;;;;;;;
2021/01/26 10:14:50;;;;;;;2.80;1.83;;;;;;;;;;5029627;28;20425;-60
2021/01/26 10:20:53;;;;;;;2.87;1.43;;;;;;;;;;5026048;28;20135;-59
2021/01/26 10:23:25;;;;;;;5.70;2.00;;;;;;;;;;5053114;28;20037;-60
2021/01/26 10:26:05;;;;;;;3.00;2.10;;;;;;;;;;5031007;28;20084;-59
2021/01/26 10:28:49;;;;;;;2.73;1.73;;;;;;;;;;5031859;28;20510;-59
2021/01/26 10:34:48;;;;;;;;;;;;;;;;;;;;;
2021/01/26 10:40:48;;;;;;;2.73;1.63;;;;;;;;;;4952772;28;20028;-60
2021/01/26 10:43:44;;;;;;;;;;;;;;;;;;;;;
2021/01/26 10:46:29;;;;;;;2.80;2.00;;;;;;;;;;5019734;28;20029;-59
2021/01/26 10:49:08;;;;;;;;;;;;;;;;;;;;;
2021/01/26 10:51:41;;;;;;;2.80;1.50;;;;;;;;;;5034254;28;20030;-59
2021/01/26 10:54:23;;;;;;;5.83;3.30;;;;;;;;;;5033055;28;20113;-59
2021/01/26 10:57:04;;;;;;;5.23;1.97;;;;;;;;;;5015111;28;20025;-59
2021/01/26 10:59:33;;;;;;;;;;;;;;;;;;5015607;28;20029;-59
2021/01/26 11:05:25;;;;;;;4.73;2.80;;;;;;;;;;4962100;28;20058;-59
2021/01/26 11:11:02;;;;;;;2.33;1.60;;;;;;;;;;5032722;28;20049;-60
2021/01/26 11:13:32;;;;;;;5.03;2.27;;;;;;;;;;5032435;28;20030;-59
2021/01/26 11:16:25;;;;;;;4.00;1.47;;;;;;;;;;5014877;28;20037;-59
2021/01/26 11:18:59;;;;;;;7.77;2.83;;;;;;;;;;5002323;28;20037;-59
2021/01/26 11:21:32;;;;;;;2.97;1.70;;;;;;;;;;5033567;28;20029;-60
2021/01/26 11:24:13;;;;;;;5.70;1.30;;;;;;;;;;5015668;27;20037;-60
2021/01/26 11:26:41;;;;;;;4.40;3.05;;;;;;;;;;5049487;28;20033;-59
2021/01/26 11:29:17;;;;;;;4.87;1.73;;;;;;;;;;5034540;28;20029;-59
2021/01/26 11:32:04;;;;;;;2.63;1.57;;;;;;;;;;5051298;28;20047;-59
2021/01/26 11:34:45;;;;;;;2.30;1.90;;;;;;;;;;5052261;28;20070;-59
2021/01/26 11:37:33;;;;;;;7.67;1.50;;;;;;;;;;5035845;28;20526;-59
2021/01/26 11:40:24;;;;;;;2.73;1.67;;;;;;;;;;5017634;28;20420;-59
2021/01/26 11:42:56;;;;;;;;;;;;;;;;;;5035952;28;20458;-59
2021/01/26 11:45:35;;;;;;;4.03;2.37;;;;;;;;;;5055094;28;19922;-59
2021/01/26 11:48:25;;;;;;;;;;;;;;;;;;;;;
2021/01/26 11:51:09;;;;;;;2.60;1.27;;;;;;;;;;5050260;28;20120;-59
2021/01/26 11:53:51;;;;;;;4.43;1.70;;;;;;;;;;5054140;28;20101;-59
2021/01/26 11:56:28;;;;;;;6.57;2.10;;;;;;;;;;5033100;28;20075;-59
2021/01/26 12:04:46;;;;;;;4.00;1.50;;;;;;;;;;5043782;28;20443;-59
2021/01/26 12:07:19;;;;;;;5.93;2.13;;;;;;;;;;5034172;28;20102;-59
2021/01/26 12:10:22;;;;;;;1.97;1.27;;;;;;;;;;5034342;28;20029;-59
2021/01/26 12:13:15;;;;;;;2.67;1.97;;;;;;;;;;5034649;28;20467;-59
2021/01/26 12:19:14;;;;;;;6.27;2.23;;;;;;;;;;5075438;28;20025;-59
2021/01/26 12:22:00;;;;;;;4.53;2.07;;;;;;;;;;5035169;28;20323;-59
2021/01/26 12:24:36;;;;;;;2.40;1.33;;;;;;;;;;5050985;27;20097;-59
2021/01/26 12:30:46;;;;;;;3.47;2.23;;;;;;;;;;5026957;28;20036;-59
2021/01/26 12:33:48;;;;;;;3.03;0.90;;;;;;;;;;5033551;28;20670;-59
2021/01/26 12:36:49;;;;;;;3.47;1.00;;;;;;;;;;5052338;28;20345;-59
2021/01/26 12:39:45;;;;;;;3.20;1.70;;;;;;;;;;5053647;28;20489;-59
2021/01/26 12:45:28;;;;;;;6.53;2.03;;;;;;;;;;5033199;28;20111;-59
2021/01/26 12:48:13;;;;;;;2.03;1.03;;;;;;;;;;5009458;28;20037;-59
2021/01/26 12:51:08;;;;;;;4.33;1.80;;;;;;;;;;5009835;28;20048;-59
2021/01/26 12:54:14;;;;;;;2.63;1.37;;;;;;;;;;5010300;28;20380;-59
2021/01/26 12:56:59;;;;;;;3.53;1.87;;;;;;;;;;5009539;28;20428;-59
2021/01/26 13:05:44;;;;;;;2.73;1.87;;;;;;;;;;5009547;28;20044;-59
2021/01/26 13:08:35;;;;;;;2.63;1.20;;;;;;;;;;5050846;28;20021;-59
2021/01/26 13:14:07;;;;;;;1.47;1.07;;;;;;;;;;5051322;28;19953;-59
2021/01/26 13:20:05;;;;;;;2.00;1.20;;;;;;;;;;5051446;28;20071;-59
2021/01/26 13:22:31;;;;;;;4.07;1.77;;;;;;;;;;5071422;28;20482;-59
2021/01/26 13:25:01;;;;;;;4.00;2.03;;;;;;;;;;5054898;28;20086;-59
2021/01/26 13:27:41;;;;;;;4.70;1.52;;;;;;;;;;5052633;28;20098;-59
2021/01/26 13:33:36;;;;;;;3.20;1.47;;;;;;;;;;5072270;28;20101;-59
2021/01/26 13:36:30;;;;;;;4.27;2.70;;;;;;;;;;5069030;28;20031;-59
2021/01/26 13:39:05;;;;;;;2.23;1.30;;;;;;;;;;5030569;28;20061;-59
2021/01/26 13:42:00;;;;;;;6.13;1.90;;;;;;;;;;5031459;28;20149;-59
2021/01/26 13:47:41;;;;;;;2.67;1.50;;;;;;;;;;5031042;28;20493;-59
2021/01/26 13:50:16;;;;;;;3.17;1.30;;;;;;;;;;5030105;28;20336;-59
2021/01/26 13:53:04;;;;;;;2.60;1.37;;;;;;;;;;5014839;28;20094;-59
2021/01/26 13:56:21;;;;;;;;;;;;;;;;;;;;;
2021/01/26 14:02:25;;;;;;;1.73;0.93;;;;;;;;;;5032091;28;20037;-59
2021/01/26 14:05:02;;;;;;;;;;;;;;;;;;;;;
2021/01/26 14:07:37;;;;;;;3.63;1.83;;;;;;;;;;5031645;28;20120;-59
2021/01/26 14:10:19;;;;;;;2.43;1.23;;;;;;;;;;5030759;28;20071;-59
2021/01/26 14:12:57;;;;;;;4.07;1.90;;;;;;;;;;5031737;28;20520;-59
2021/01/26 14:15:33;;;;;;;3.33;1.20;;;;;;;;;;5031294;28;20029;-59
2021/01/26 14:21:05;;;;;;;5.53;1.63;;;;;;;;;;5031501;28;20483;-59
2021/01/26 14:26:52;;;;;;;2.67;1.13;;;;;;;;;;5033561;28;20064;-59
2021/01/26 14:29:33;;;;;;;1.83;1.23;;;;;;;;;;5031163;28;20394;-59
2021/01/26 14:32:09;;;;;;;1.52;1.05;;;;;;;;;;5033605;28;20042;-59
2021/01/26 14:34:55;;;;;;;3.73;1.07;;;;;;;;;;5034006;28;20040;-59
2021/01/26 14:40:43;;;;;;;5.17;1.30;;;;;;;;;;4991520;28;20037;-59
2021/01/26 14:43:18;;;;;;;2.87;1.40;;;;;;;;;;4991809;28;20038;-59
2021/01/26 14:46:05;;;;;;;3.40;1.83;;;;;;;;;;5039139;28;20375;-59
2021/01/26 14:51:55;;;;;;;3.70;1.50;;;;;;;;;;5025130;28;20158;-59
2021/01/26 14:54:26;;;;;;;1.77;1.00;;;;;;;;;;5039597;28;20036;-59
2021/01/26 14:57:33;;;;;;;2.77;1.30;;;;;;;;;;5029903;28;20033;-59
2021/01/26 15:00:15;;;;;;;5.73;1.60;;;;;;;;;;5074573;28;20450;-59
2021/01/26 15:02:57;;;;;;;3.63;1.20;;;;;;;;;;5074175;28;20042;-59
2021/01/26 15:06:06;;;;;;;;;;;;;;;;;;;;;
2021/01/26 15:08:38;;;;;;;1.93;1.10;;;;;;;;;;5033467;28;20462;-60
2021/01/26 15:11:15;;;;;;;1.27;1.17;;;;;;;;;;5033247;28;20041;-60
2021/01/26 15:14:09;;;;;;;2.03;1.03;;;;;;;;;;5032705;28;20078;-60
2021/01/26 15:19:35;;;;;;;3.13;0.93;;;;;;;;;;5032808;28;20451;-60
2021/01/26 15:22:19;;;;;;;1.03;0.70;;;;;;;;;;5032875;28;20467;-60
2021/01/26 15:30:58;;;;;;;3.60;1.13;;;;;;;;;;5039481;28;20049;-60
2021/01/26 15:37:17;;;;;;;1.90;1.03;;;;;;;;;;4972066;28;20287;-58
2021/01/26 15:40:06;;;;;;;1.33;0.90;;;;;;;;;;4972303;28;20057;-58
2021/01/26 15:42:53;;;;;;;1.23;0.60;;;;;;;;;;5031787;28;20072;-58
2021/01/26 15:45:30;;;;;;;2.87;1.40;;;;;;;;;;5053220;28;20131;-58
2021/01/26 15:48:22;;;;;;;1.43;0.80;;;;;;;;;;5036547;28;20041;-58
2021/01/26 15:51:22;;;;;;;1.30;0.90;;;;;;;;;;5031244;28;20029;-58
2021/01/26 15:54:15;;;;;;;3.07;1.40;;;;;;;;;;5053724;28;20047;-60
2021/01/26 15:56:53;;;;;;;4.70;0.90;;;;;;;;;;5048973;28;20096;-60
2021/01/26 15:59:49;;;;;;;1.20;0.70;;;;;;;;;;5053500;28;20346;-60
2021/01/26 16:05:26;;;;;;;1.48;1.05;;;;;;;;;;5028584;28;20451;-60
2021/01/26 16:08:09;;;;;;;2.83;1.23;;;;;;;;;;5052526;28;20488;-60
2021/01/26 16:14:30;;;;;;;2.10;1.30;;;;;;;;;;5052500;28;20480;-58
2021/01/26 16:17:15;;;;;;;1.60;1.30;;;;;;;;;;5068188;28;20435;-58
2021/01/26 16:19:58;;;;;;;;;;;;;;;;;;;;;
2021/01/26 16:22:39;;;;;;;1.83;0.90;;;;;;;;;;5054649;28;20112;-58
2021/01/26 16:31:53;;;;;;;8.80;1.33;;;;;;;;;;5031823;28;20111;-58
2021/01/26 16:34:41;;;;;;;4.60;1.53;;;;;;;;;;5031007;28;20530;-60
2021/01/26 16:37:22;;;;;;;;;;;;;;;;;;;;;
2021/01/26 16:40:18;;;;;;;6.60;1.17;;;;;;;;;;5030690;28;20445;-58
2021/01/26 16:43:18;;;;;;;3.03;1.63;;;;;;;;;;5110174;27;20430;-58
2021/01/26 16:46:14;;;;;;;;;;;;;;;;;;;;;
2021/01/26 16:49:23;;;;;;;;;;;;;;;;;;;;;
2021/01/26 16:51:44;;;;;;;2.60;1.27;;;;;;;;;;5026127;28;20038;-58
2021/01/26 16:54:13;;;;;;;4.60;1.70;;;;;;;;;;5008410;28;20038;-58
2021/01/26 16:57:07;;;;;;;2.80;1.13;;;;;;;;;;5009491;28;20046;-58
2021/01/26 17:02:42;;;;;;;;;;;;;;;;;;5009773;28;20038;-59
2021/01/26 17:05:08;;;;;;;3.23;1.77;;;;;;;;;;5010058;28;20470;-59
2021/01/26 17:07:44;;;;;;;3.20;1.73;;;;;;;;;;5009018;28;20057;-60
2021/01/26 17:16:51;;;;;;;2.37;1.27;;;;;;;;;;5009121;28;20084;-59
2021/01/26 17:22:14;;;;;;;;;;;;;;;;;;5009646;28;20033;-60
2021/01/26 17:25:22;;;;;;;1.43;0.90;;;;;;;;;;5015252;28;19909;-59
2021/01/26 17:28:17;;;;;;;1.83;1.00;;;;;;;;;;5031608;28;20033;-60
2021/01/26 17:31:04;;;;;;;2.47;1.67;;;;;;;;;;5029219;28;20050;-59
2021/01/26 17:36:54;;;;;;;2.00;1.20;;;;;;;;;;5031159;28;20080;-60
2021/01/26 17:39:41;;;;;;;3.33;2.13;;;;;;;;;;5030553;28;20025;-60
2021/01/26 17:45:15;;;;;;;1.77;1.23;;;;;;;;;;5031049;28;20408;-60
2021/01/26 17:47:58;;;;;;;10.13;2.20;;;;;;;;;;5030037;28;20475;-60
2021/01/26 17:50:34;;;;;;;4.53;1.80;;;;;;;;;;5030744;28;20071;-60
2021/01/26 17:53:12;;;;;;;2.77;1.67;;;;;;;;;;5029697;28;20041;-60
2021/01/26 17:56:11;;;;;;;2.97;1.57;;;;;;;;;;5032262;28;20113;-60
2021/01/26 17:58:45;;;;;;;3.63;1.73;;;;;;;;;;5075875;28;20464;-60
2021/01/26 18:01:34;;;;;;;4.87;3.07;;;;;;;;;;5076016;28;20044;-60
2021/01/26 18:04:14;;;;;;;4.03;1.47;;;;;;;;;;5074713;28;20044;-59
2021/01/26 18:06:52;;;;;;;4.47;1.83;;;;;;;;;;5037992;28;20138;-60
2021/01/26 18:12:27;;;;;;;3.73;2.23;;;;;;;;;;5033865;28;20079;-59
2021/01/26 18:15:12;;;;;;;1.97;1.37;;;;;;;;;;5037847;28;20033;-59
2021/01/26 18:17:42;;;;;;;1.90;1.13;;;;;;;;;;5036625;28;20086;-60
2021/01/26 18:20:09;;;;;;;5.27;1.90;;;;;;;;;;5037602;28;20029;-59
2021/01/26 18:23:09;;;;;;;2.50;1.37;;;;;;;;;;5035608;28;20348;-59
2021/01/26 18:25:47;;;;;;;3.13;1.80;;;;;;;;;;5035425;28;20442;-60
2021/01/26 18:28:22;;;;;;;3.10;1.93;;;;;;;;;;5037577;28;20052;-60
2021/01/26 18:30:53;;;;;;;4.20;2.07;;;;;;;;;;5050889;27;20065;-60
2021/01/26 18:33:32;;;;;;;3.37;1.90;;;;;;;;;;5058432;28;20036;-60
2021/01/26 18:39:20;;;;;;;5.50;2.73;;;;;;;;;;5043280;28;20044;-60
2021/01/26 18:41:57;;;;;;;;;;;;;;;;;;;;;
2021/01/26 18:44:39;;;;;;;7.37;2.17;;;;;;;;;;5041561;28;20438;-60
2021/01/26 18:47:46;;;;;;;3.90;2.67;;;;;;;;;;5030504;28;20049;-60
2021/01/26 18:50:26;;;;;;;3.57;2.17;;;;;;;;;;5141066;27;20493;-60
2021/01/26 18:53:05;;;;;;;5.83;3.37;;;;;;;;;;5056981;28;20104;-60
2021/01/26 18:58:51;;;;;;;4.53;3.80;;;;;;;;;;5031847;28;20029;-59
2021/01/26 19:01:42;;;;;;;4.00;3.07;;;;;;;;;;5056005;28;20021;-59
2021/01/26 19:04:22;;;;;;;4.78;2.95;;;;;;;;;;5039070;28;20043;-59
2021/01/26 19:07:07;;;;;;;3.73;2.67;;;;;;;;;;5055190;28;20119;-59
2021/01/26 19:10:03;;;;;;;4.23;2.20;;;;;;;;;;5037086;28;20094;-60
2021/01/26 19:12:36;;;;;;;7.10;2.10;;;;;;;;;;5055273;28;20366;-59
2021/01/26 19:15:22;;;;;;;3.23;2.40;;;;;;;;;;5034442;28;20047;-59
2021/01/26 19:18:26;;;;;;;9.87;3.67;;;;;;;;;;5053724;28;20025;-60
2021/01/26 19:20:58;;;;;;;4.90;3.30;;;;;;;;;;5054528;28;20125;-60
2021/01/26 19:23:37;;;;;;;;;;;;;;;;;;;;;
2021/01/26 19:26:38;;;;;;;9.17;2.83;;;;;;;;;;5054700;28;20113;-60
2021/01/26 19:29:22;;;;;;;9.07;2.95;;;;;;;;;;5073434;28;20052;-60
2021/01/26 19:32:04;;;;;;;5.97;2.90;;;;;;;;;;5036647;28;20120;-60
2021/01/26 19:34:52;;;;;;;3.87;2.43;;;;;;;;;;5051771;28;20068;-60
2021/01/26 19:37:56;;;;;;;;;;;;;;;;;;;;;
2021/01/26 19:40:34;;;;;;;6.10;2.30;;;;;;;;;;5054075;28;20431;-60
2021/01/26 19:43:05;;;;;;;8.10;2.47;;;;;;;;;;5053023;28;20021;-58
2021/01/26 19:48:51;;;;;;;;;;;;;;;;;;;;;
2021/01/26 19:51:20;;;;;;;5.33;2.63;;;;;;;;;;5051689;28;20021;-58
2021/01/26 19:54:08;;;;;;;3.93;3.00;;;;;;;;;;5034692;28;20045;-58
2021/01/26 19:56:57;;;;;;;3.50;2.57;;;;;;;;;;5034357;28;20040;-58
2021/01/26 20:02:59;;;;;;;4.70;3.00;;;;;;;;;;5038064;28;20037;-58
2021/01/26 20:05:54;;;;;;;8.80;3.40;;;;;;;;;;5051874;28;20425;-58
2021/01/26 20:08:22;;;;;;;4.00;2.53;;;;;;;;;;5052533;28;20051;-58
2021/01/26 20:11:22;;;;;;;6.10;5.23;;;;;;;;;;5051438;28;20131;-58
2021/01/26 20:14:07;;;;;;;;;;;;;;;;;;;;;
2021/01/26 20:16:39;;;;;;;8.40;6.07;;;;;;;;;;5053269;28;20048;-58
2021/01/26 20:19:18;;;;;;;9.10;6.17;;;;;;;;;;5029716;28;20041;-58
2021/01/26 20:21:59;;;;;;;6.97;6.27;;;;;;;;;;5029727;28;20021;-58
2021/01/26 20:24:44;;;;;;;9.07;5.07;;;;;;;;;;5074125;28;20042;-58
2021/01/26 20:27:42;;;;;;;9.40;5.03;;;;;;;;;;5029749;28;20029;-59
2021/01/26 20:30:35;;;;;;;5.17;4.17;;;;;;;;;;5028542;28;20056;-59
2021/01/26 20:33:29;;;;;;;5.70;3.13;;;;;;;;;;4951221;29;20079;-59
2021/01/26 20:36:10;;;;;;;5.70;4.17;;;;;;;;;;4984372;28;20109;-59
2021/01/26 20:44:48;;;;;;;3.37;2.27;;;;;;;;;;5040238;28;20045;-59
2021/01/26 20:47:23;;;;;;;4.73;3.20;;;;;;;;;;5029722;28;20025;-59
2021/01/26 20:50:20;;;;;;;4.67;2.50;;;;;;;;;;5029874;28;20033;-59
2021/01/26 20:52:59;;;;;;;3.83;2.67;;;;;;;;;;5032581;28;20037;-59
2021/01/26 20:58:58;;;;;;;;;;;;;;;;;;;;;
2021/01/26 21:01:43;;;;;;;3.53;2.53;;;;;;;;;;5032240;28;20077;-59
2021/01/26 21:04:21;;;;;;;8.47;3.10;;;;;;;;;;5029520;28;20094;-59
2021/01/26 21:07:20;;;;;;;;;;;;;;;;;;;;;
2021/01/26 21:16:28;;;;;;;4.17;3.07;;;;;;;;;;5028354;28;20394;-59
2021/01/26 21:19:32;;;;;;;3.57;3.23;;;;;;;;;;5031523;28;20348;-59
2021/01/26 21:22:32;;;;;;;5.50;3.30;;;;;;;;;;5031684;28;20037;-59
2021/01/26 21:25:03;;;;;;;3.25;2.17;;;;;;;;;;4996546;28;20053;-59
2021/01/26 21:27:31;;;;;;;;;;;;;;;;;;5032491;28;20109;-59
2021/01/26 21:30:13;;;;;;;3.63;3.20;;;;;;;;;;5030507;28;20350;-59
2021/01/26 21:33:18;;;;;;;6.73;4.17;;;;;;;;;;5047138;27;20101;-59
2021/01/26 21:36:07;;;;;;;9.03;4.07;;;;;;;;;;5137452;27;20375;-59
2021/01/26 21:38:57;;;;;;;4.50;3.27;;;;;;;;;;5033439;28;20033;-59
2021/01/26 21:51:08;;;;;;;5.55;4.47;;;;;;;;;;5026241;28;20029;-59
2021/01/26 21:53:53;;;;;;;5.33;3.43;;;;;;;;;;5094439;27;20033;-59
2021/01/26 21:56:41;;;;;;;7.23;4.00;;;;;;;;;;5051746;28;20029;-59
2021/01/26 22:02:20;;;;;;;3.37;2.73;;;;;;;;;;5053677;28;20033;-59
2021/01/26 22:10:55;;;;;;;6.70;4.30;;;;;;;;;;4991897;28;20027;-59